Time;durP1;ratioP1;P1;durP2;ratioP2;P2;SDS_P1;SDS_P2;PMS_P1;PMS_P2;Temp;Humidity;BMP_temperature;BMP_pressure;BME280_temperature;BME280_humidity;BME280_pressure;Samples;Min_cycle;Max_cycle;Signal;HPM_P1;HPM_P2
2022/04/27 00:00:31;;;;;;;35.22;20.40;;;;;;;5.67;86.64;100662.69;5058555;28;20460;-73
2022/04/27 00:02:56;;;;;;;41.53;19.80;;;;;;;5.64;86.28;100663.53;5058259;28;20033;-75
2022/04/27 00:05:26;;;;;;;36.63;20.13;;;;;;;5.58;86.05;100653.97;5040628;28;20064;-79
2022/04/27 00:07:51;;;;;;;43.80;20.20;;;;;;;5.60;86.01;100655.16;5075707;28;20020;-73
2022/04/27 00:10:20;;;;;;;42.70;20.10;;;;;;;5.59;86.57;100658.41;5074671;28;20115;-74
2022/04/27 00:12:46;;;;;;;40.08;19.33;;;;;;;5.54;86.32;100665.34;5056843;28;20024;-73
2022/04/27 00:15:12;;;;;;;43.85;19.88;;;;;;;5.54;86.58;100662.53;5073991;28;20024;-77
2022/04/27 00:17:38;;;;;;;46.72;20.17;;;;;;;5.51;87.17;100668.28;5059368;28;20384;-75
2022/04/27 00:20:05;;;;;;;40.60;18.98;;;;;;;5.47;86.45;100664.72;5076046;28;20456;-76
2022/04/27 00:22:30;;;;;;;39.05;20.00;;;;;;;5.45;86.63;100667.19;5059709;28;20020;-75
2022/04/27 00:25:01;;;;;;;37.75;18.90;;;;;;;5.44;86.56;100674.06;5076267;28;20024;-74
2022/04/27 00:27:27;;;;;;;37.67;19.48;;;;;;;5.36;86.34;100661.31;5094251;28;20016;-77
2022/04/27 00:29:53;;;;;;;36.00;20.83;;;;;;;5.39;86.97;100666.09;5094192;28;20031;-76
2022/04/27 00:32:18;;;;;;;46.72;23.15;;;;;;;5.33;86.33;100668.63;5075859;28;20023;-75
2022/04/27 00:34:43;;;;;;;40.25;21.60;;;;;;;5.37;86.63;100671.38;5093834;28;20414;-75
2022/04/27 00:37:09;;;;;;;44.20;22.73;;;;;;;5.36;86.70;100678.25;5075615;28;20365;-76
2022/04/27 00:39:34;;;;;;;47.30;23.67;;;;;;;5.33;86.96;100670.66;5075925;28;20020;-76
2022/04/27 00:42:21;;;;;;;38.58;22.02;;;;;;;5.30;87.56;100668.69;5093963;28;20469;-76
2022/04/27 00:44:47;;;;;;;41.78;19.73;;;;;;;5.31;87.42;100679.56;5075571;28;20023;-76
2022/04/27 00:47:17;;;;;;;43.08;21.75;;;;;;;5.27;86.97;100678.84;5075629;28;20124;-75
2022/04/27 00:49:48;;;;;;;41.80;21.02;;;;;;;5.23;86.91;100673.25;5075405;28;20047;-75
2022/04/27 00:52:15;;;;;;;41.60;20.40;;;;;;;5.26;86.42;100682.09;5058882;28;20426;-75
2022/04/27 00:54:46;;;;;;;43.90;20.92;;;;;;;5.19;87.07;100671.72;5058771;28;20107;-75
2022/04/27 00:57:11;;;;;;;44.27;20.90;;;;;;;5.17;86.54;100680.66;5075355;28;20020;-74
2022/04/27 00:59:37;;;;;;;37.53;19.30;;;;;;;5.16;86.50;100679.06;5075575;28;20680;-76
2022/04/27 01:02:06;;;;;;;37.92;18.23;;;;;;;5.11;86.81;100675.94;5093340;28;20056;-76
2022/04/27 01:04:35;;;;;;;37.40;19.65;;;;;;;5.13;86.71;100674.25;5093019;28;20028;-75
2022/04/27 01:07:02;;;;;;;37.30;21.05;;;;;;;5.08;87.03;100674.75;5075007;28;20058;-75
2022/04/27 01:09:28;;;;;;;36.63;19.85;;;;;;;5.06;86.32;100679.25;5075255;28;20024;-75
2022/04/27 01:11:54;;;;;;;41.00;19.60;;;;;;;4.95;86.86;100661.72;5075072;28;20421;-74
2022/04/27 01:14:20;;;;;;;33.20;20.10;;;;;;;5.04;86.50;100681.69;5075533;28;20046;-75
2022/04/27 01:16:56;;;;;;;33.55;17.73;;;;;;;5.00;86.26;100687.41;5075487;28;20016;-74
2022/04/27 01:19:23;;;;;;;32.55;17.73;;;;;;;4.95;86.31;100690.75;5075341;28;20524;-75
2022/04/27 01:21:49;;;;;;;32.53;16.88;;;;;;;4.89;86.35;100691.66;5075387;28;20020;-73
2022/04/27 01:24:18;;;;;;;32.00;17.83;;;;;;;4.85;86.54;100688.91;5058428;28;20107;-74
2022/04/27 01:26:43;;;;;;;39.80;19.15;;;;;;;4.83;87.24;100696.22;5058429;28;20067;-74
2022/04/27 01:29:09;;;;;;;37.35;17.73;;;;;;;4.79;87.37;100693.44;5075310;28;20024;-74
2022/04/27 01:31:34;;;;;;;42.05;19.83;;;;;;;4.76;87.77;100692.28;5093396;28;20031;-75
2022/04/27 01:33:59;;;;;;;37.10;18.98;;;;;;;4.78;87.82;100698.28;5075271;28;20025;-75
2022/04/27 01:36:25;;;;;;;44.17;21.20;;;;;;;4.77;88.01;100690.28;5058492;28;20021;-75
2022/04/27 01:38:50;;;;;;;36.08;18.60;;;;;;;4.82;88.42;100694.63;5058401;28;20434;-75
2022/04/27 01:41:15;;;;;;;39.80;20.10;;;;;;;4.76;88.87;100689.47;5074153;28;20111;-75
2022/04/27 01:43:41;;;;;;;41.40;19.92;;;;;;;4.77;88.48;100699.53;5093161;28;20399;-75
2022/04/27 01:46:06;;;;;;;44.40;21.23;;;;;;;4.81;88.42;100698.66;5075415;28;20022;-75
2022/04/27 01:48:32;;;;;;;38.33;18.95;;;;;;;4.76;88.75;100697.13;5075257;28;20111;-75
2022/04/27 01:50:57;;;;;;;37.17;18.80;;;;;;;4.76;88.78;100700.75;5075064;28;20049;-74
2022/04/27 01:56:06;;;;;;;44.25;22.27;;;;;;;4.80;89.57;100709.16;5093170;28;20078;-75
2022/04/27 01:58:32;;;;;;;51.15;23.48;;;;;;;4.80;88.72;100700.69;5058298;28;20051;-75
2022/04/27 02:00:57;;;;;;;45.22;24.45;;;;;;;4.84;88.88;100707.06;5058286;28;20028;-75
2022/04/27 02:03:23;;;;;;;57.60;24.95;;;;;;;4.83;89.60;100699.84;5058223;28;20035;-75
2022/04/27 02:05:49;;;;;;;51.20;24.75;;;;;;;4.87;89.59;100697.75;5058334;28;20020;-75
2022/04/27 02:08:14;;;;;;;54.35;25.30;;;;;;;4.92;89.98;100707.75;5074868;28;20024;-75
2022/04/27 02:10:40;;;;;;;56.22;25.10;;;;;;;4.94;89.49;100706.06;5092556;28;20044;-75
2022/04/27 02:13:07;;;;;;;53.92;26.58;;;;;;;4.96;89.09;100697.97;5075676;28;20388;-76
2022/04/27 02:15:33;;;;;;;57.22;26.30;;;;;;;4.95;89.70;100696.38;5094555;28;20020;-75
2022/04/27 02:17:59;;;;;;;52.13;24.20;;;;;;;4.96;88.96;100697.19;5076639;28;20035;-77
2022/04/27 02:20:24;;;;;;;55.50;26.60;;;;;;;4.98;89.94;100695.50;5076787;28;20024;-75
2022/04/27 02:22:50;;;;;;;63.97;26.92;;;;;;;5.01;89.51;100702.34;5060202;28;20442;-76
2022/04/27 02:25:16;;;;;;;58.65;25.63;;;;;;;5.03;89.82;100702.72;5060220;28;20358;-77
2022/04/27 02:27:43;;;;;;;53.72;27.05;;;;;;;5.07;90.08;100704.25;5060113;28;20024;-77
2022/04/27 02:30:09;;;;;;;60.78;27.30;;;;;;;5.08;89.76;100708.63;5061216;28;20031;-76
2022/04/27 02:32:35;;;;;;;56.65;26.02;;;;;;;5.08;89.54;100705.03;5078125;28;20036;-77
2022/04/27 02:35:00;;;;;;;58.63;27.35;;;;;;;5.07;89.50;100703.44;5096441;28;20461;-76
2022/04/27 02:37:25;;;;;;;60.45;26.65;;;;;;;5.10;90.53;100703.38;5061241;28;20457;-76
2022/04/27 02:39:51;;;;;;;58.33;26.92;;;;;;;5.08;89.64;100700.16;5060494;28;20028;-76
2022/04/27 02:42:17;;;;;;;50.00;23.60;;;;;;;5.08;90.44;100696.56;5061363;28;20144;-77
2022/04/27 02:44:43;;;;;;;44.15;22.60;;;;;;;5.06;90.27;100702.63;5061586;28;20036;-77
2022/04/27 02:47:09;;;;;;;46.33;22.38;;;;;;;5.05;89.44;100712.31;5096148;28;20467;-76
2022/04/27 02:52:18;;;;;;;53.15;24.25;;;;;;;4.95;89.88;100698.41;5096212;28;20120;-77
2022/04/27 02:54:44;;;;;;;50.97;24.20;;;;;;;4.98;90.26;100700.38;5077890;28;20452;-76
2022/04/27 02:57:09;;;;;;;51.70;24.75;;;;;;;4.95;90.35;100690.75;5095833;28;20820;-77
2022/04/27 02:59:34;;;;;;;55.47;26.08;;;;;;;5.00;90.82;100703.56;5078067;28;20028;-77
2022/04/27 03:02:00;;;;;;;57.28;25.63;;;;;;;5.02;91.16;100715.22;5095911;28;20032;-75
2022/04/27 03:04:25;;;;;;;49.15;25.38;;;;;;;5.03;90.72;100699.88;5095844;28;20467;-77
2022/04/27 03:06:51;;;;;;;56.67;26.17;;;;;;;5.07;90.99;100709.88;5062027;28;20023;-78
2022/04/27 03:09:16;;;;;;;60.38;27.05;;;;;;;5.04;90.53;100707.91;5079980;28;20457;-77
2022/04/27 03:11:42;;;;;;;54.40;26.65;;;;;;;5.13;91.14;100718.66;5078428;28;20510;-77
2022/04/27 03:14:07;;;;;;;59.20;28.27;;;;;;;5.15;90.90;100727.47;5095781;28;20020;-76
2022/04/27 03:16:32;;;;;;;58.17;26.80;;;;;;;5.14;90.66;100717.41;5095577;28;20039;-77
2022/04/27 03:18:57;;;;;;;55.83;26.33;;;;;;;5.16;91.34;100723.44;5095539;28;20028;-78
2022/04/27 03:21:23;;;;;;;47.15;25.70;;;;;;;5.17;90.66;100730.69;5095605;28;20024;-77
2022/04/27 03:23:48;;;;;;;58.15;26.10;;;;;;;5.15;90.33;100725.44;5094948;28;20028;-77
2022/04/27 03:26:14;;;;;;;56.35;26.02;;;;;;;5.16;90.54;100726.25;5095619;28;20028;-79
2022/04/27 03:28:39;;;;;;;55.17;26.27;;;;;;;5.16;91.25;100727.06;5077395;28;20055;-77
2022/04/27 03:31:04;;;;;;;49.90;25.92;;;;;;;5.15;90.52;100727.47;5077262;28;20479;-78
2022/04/27 03:33:30;;;;;;;50.10;26.13;;;;;;;5.10;90.80;100719.50;5077221;28;20055;-78
2022/04/27 03:35:55;;;;;;;56.88;25.60;;;;;;;5.11;89.76;100729.56;5095416;28;20394;-78
2022/04/27 03:38:20;;;;;;;49.97;24.90;;;;;;;5.02;90.21;100730.13;5095119;28;20032;-77
2022/04/27 03:40:49;;;;;;;51.08;25.00;;;;;;;5.04;90.76;100729.69;5095040;28;20024;-76
2022/04/27 03:43:15;;;;;;;53.65;25.23;;;;;;;5.10;90.70;100739.25;5077415;28;20035;-77
2022/04/27 03:45:41;;;;;;;52.08;26.33;;;;;;;5.10;90.39;100742.09;5095093;28;20129;-78
2022/04/27 03:48:07;;;;;;;54.03;24.80;;;;;;;5.08;90.85;100736.09;5094799;28;20487;-76
2022/04/27 03:50:33;;;;;;;48.00;23.88;;;;;;;5.10;90.26;100730.78;5095163;28;20036;-76
2022/04/27 03:52:59;;;;;;;57.10;25.02;;;;;;;5.23;91.11;100743.84;5095668;28;20027;-77
2022/04/27 03:55:25;;;;;;;57.67;25.55;;;;;;;5.13;90.60;100722.25;5094726;28;20419;-76
2022/04/27 03:57:50;;;;;;;53.25;26.02;;;;;;;5.31;90.30;100740.91;5094200;28;20050;-77
2022/04/27 04:00:16;;;;;;;54.63;26.77;;;;;;;5.36;90.03;100749.66;5058006;28;20491;-78
2022/04/27 04:02:41;;;;;;;57.40;25.42;;;;;;;5.35;89.78;100742.41;5092252;28;20536;-77
2022/04/27 04:05:07;;;;;;;57.67;27.27;;;;;;;5.40;89.57;100756.03;5074103;28;20073;-77
2022/04/27 04:07:33;;;;;;;56.80;25.45;;;;;;;5.43;89.65;100755.16;5092681;28;20097;-78
2022/04/27 04:09:59;;;;;;;53.15;24.85;;;;;;;5.45;89.99;100755.53;5092721;28;20114;-77
2022/04/27 04:12:24;;;;;;;49.95;24.98;;;;;;;5.49;89.70;100756.25;5074876;28;20131;-78
2022/04/27 04:14:50;;;;;;;54.38;26.40;;;;;;;5.54;89.94;100757.78;5093233;28;20028;-76
2022/04/27 04:17:16;;;;;;;50.70;25.55;;;;;;;5.59;89.58;100765.75;5094361;28;20518;-78
2022/04/27 04:19:41;;;;;;;55.90;26.30;;;;;;;5.58;89.38;100752.84;5094505;28;20039;-77
2022/04/27 04:22:08;;;;;;;53.53;25.95;;;;;;;5.71;89.40;100770.78;5058990;28;20020;-78
2022/04/27 04:24:33;;;;;;;46.85;24.73;;;;;;;5.81;89.42;100775.41;5059477;28;20047;-79
2022/04/27 04:29:43;;;;;;;50.03;24.52;;;;;;;5.83;89.32;100744.66;5078510;28;20063;-77
2022/04/27 04:32:08;;;;;;;48.28;25.50;;;;;;;6.06;88.72;100774.94;5093482;28;20402;-77
2022/04/27 04:34:33;;;;;;;60.75;25.98;;;;;;;6.12;88.04;100775.22;5075799;28;20028;-78
2022/04/27 04:36:59;;;;;;;51.50;26.67;;;;;;;6.21;88.17;100792.38;5074771;28;20032;-76
2022/04/27 04:39:24;;;;;;;57.83;25.58;;;;;;;6.30;88.41;100781.28;5094280;28;20035;-76
2022/04/27 04:41:49;;;;;;;51.22;25.20;;;;;;;6.34;87.76;100779.94;5059102;28;20016;-77
2022/04/27 04:44:14;;;;;;;51.83;26.55;;;;;;;6.41;87.04;100785.44;5093804;28;20388;-76
2022/04/27 04:46:40;;;;;;;49.75;25.85;;;;;;;6.47;87.56;100792.16;5093782;28;20024;-76
2022/04/27 04:49:06;;;;;;;48.53;24.75;;;;;;;6.50;86.65;100777.16;5093758;28;20384;-78
2022/04/27 04:51:32;;;;;;;54.65;27.08;;;;;;;6.66;86.99;100795.41;5074394;28;20028;-77
2022/04/27 04:53:57;;;;;;;50.72;25.10;;;;;;;6.77;86.77;100795.94;5057507;28;20036;-77
2022/04/27 04:56:22;;;;;;;59.00;24.75;;;;;;;6.85;86.71;100803.84;5074789;28;20031;-78
2022/04/27 04:58:47;;;;;;;50.13;25.92;;;;;;;6.95;86.04;100799.16;5074293;28;20027;-76
2022/04/27 05:01:13;;;;;;;52.38;25.02;;;;;;;7.02;86.09;100795.31;5074984;28;20044;-79
2022/04/27 05:03:38;;;;;;;47.15;24.83;;;;;;;7.15;85.94;100804.72;5093718;28;20022;-81
2022/04/27 05:06:04;;;;;;;49.33;24.40;;;;;;;7.26;85.61;100799.56;5075784;28;20482;-77
2022/04/27 05:08:30;;;;;;;53.03;25.00;;;;;;;7.34;84.99;100795.31;5075228;28;20031;-76
2022/04/27 05:10:55;;;;;;;51.30;25.88;;;;;;;7.44;84.36;100801.94;5073799;28;20052;-77
2022/04/27 05:13:20;;;;;;;51.13;25.42;;;;;;;7.46;84.51;100788.09;5074290;28;20024;-75
2022/04/27 05:15:45;;;;;;;51.35;26.27;;;;;;;7.71;84.58;100808.06;5091793;28;20088;-76
2022/04/27 05:18:11;;;;;;;49.17;26.60;;;;;;;7.78;84.62;100805.84;5091163;28;20062;-76
2022/04/27 05:20:38;;;;;;;47.17;25.70;;;;;;;7.95;83.79;100805.75;5093590;28;20150;-76
2022/04/27 05:23:04;;;;;;;51.05;25.40;;;;;;;8.12;83.66;100807.31;5093174;28;20059;-77
2022/04/27 05:25:29;;;;;;;51.45;25.33;;;;;;;8.31;82.69;100816.91;5075190;28;20063;-76
2022/04/27 05:27:55;;;;;;;55.72;27.83;;;;;;;8.48;82.04;100822.06;5093334;28;20020;-76
2022/04/27 05:33:12;;;;;;;47.83;25.73;;;;;;;8.82;81.07;100831.97;5061759;28;20032;-77
2022/04/27 05:35:41;;;;;;;44.22;23.85;;;;;;;8.95;81.40;100827.06;5093178;28;20035;-76
2022/04/27 05:38:07;;;;;;;48.97;24.60;;;;;;;9.14;81.23;100828.88;5058223;28;20024;-76
2022/04/27 05:40:32;;;;;;;47.60;24.33;;;;;;;9.29;78.62;100827.13;5093134;28;20499;-79
2022/04/27 05:42:57;;;;;;;40.90;22.02;;;;;;;9.38;78.65;100832.91;5075005;28;20030;-75
2022/04/27 05:45:23;;;;;;;39.65;20.73;;;;;;;9.45;78.02;100826.19;5093198;28;20023;-74
2022/04/27 05:47:49;;;;;;;41.35;21.63;;;;;;;9.66;78.41;100830.34;5076905;28;20376;-75
2022/04/27 05:50:14;;;;;;;41.35;21.45;;;;;;;9.79;77.35;100831.91;5097204;28;20482;-74
2022/04/27 05:52:56;;;;;;;32.33;19.60;;;;;;;9.92;77.94;100829.00;5097047;28;20497;-74
2022/04/27 05:55:22;;;;;;;42.05;22.02;;;;;;;10.00;76.48;100830.34;5079098;28;20028;-76
2022/04/27 05:57:47;;;;;;;34.55;19.58;;;;;;;10.14;76.99;100844.03;5078855;28;20035;-75
2022/04/27 06:00:13;;;;;;;34.08;20.88;;;;;;;10.27;76.58;100846.84;5097212;28;20024;-75
2022/04/27 06:02:39;;;;;;;35.40;18.23;;;;;;;10.41;76.02;100840.59;5096991;28;20028;-77
2022/04/27 06:05:06;;;;;;;29.45;16.83;;;;;;;10.59;75.80;100843.59;5078931;28;20027;-76
2022/04/27 06:07:34;;;;;;;36.25;20.70;;;;;;;10.76;75.29;100847.78;5096700;28;20028;-79
2022/04/27 06:09:59;;;;;;;30.33;17.85;;;;;;;10.96;74.91;100853.09;5096745;28;20024;-76
2022/04/27 06:12:30;;;;;;;39.30;21.20;;;;;;;11.07;73.54;100847.75;5096799;28;20051;-76
2022/04/27 06:14:55;;;;;;;32.63;18.10;;;;;;;11.27;74.09;100851.00;5096662;28;20027;-77
2022/04/27 06:17:20;;;;;;;36.20;19.25;;;;;;;11.46;73.58;100854.69;5078644;28;20372;-77
2022/04/27 06:19:46;;;;;;;34.00;17.58;;;;;;;11.60;72.74;100854.09;5062091;28;20073;-77
2022/04/27 06:22:11;;;;;;;30.05;17.25;;;;;;;11.78;70.98;100864.78;5096813;28;20077;-76
2022/04/27 06:24:37;;;;;;;36.15;18.95;;;;;;;11.93;70.78;100867.81;5096512;28;20159;-74
2022/04/27 06:27:02;;;;;;;26.67;15.73;;;;;;;12.13;69.66;100873.03;5078100;28;20020;-76
2022/04/27 06:29:27;;;;;;;29.48;17.60;;;;;;;12.39;69.62;100880.00;5096379;28;20132;-75
2022/04/27 06:31:53;;;;;;;33.47;16.48;;;;;;;12.78;69.77;100870.38;5077063;28;20036;-75
2022/04/27 06:34:18;;;;;;;23.75;14.65;;;;;;;14.02;66.85;100869.94;5094446;28;20027;-76
2022/04/27 06:36:43;;;;;;;22.52;14.30;;;;;;;15.90;61.37;100865.88;5093889;28;20054;-76
2022/04/27 06:39:12;;;;;;;22.48;14.02;;;;;;;17.70;52.57;100867.09;5094128;28;20461;-76
2022/04/27 06:41:37;;;;;;;28.33;14.93;;;;;;;19.46;48.81;100867.28;5095977;28;20521;-76
2022/04/27 06:44:03;;;;;;;26.00;14.77;;;;;;;21.10;42.88;100865.44;5075531;28;20111;-74
2022/04/27 06:46:28;;;;;;;23.35;14.35;;;;;;;22.28;37.70;100873.75;5093689;28;20358;-75
2022/04/27 06:48:55;;;;;;;23.67;14.45;;;;;;;23.27;37.34;100872.81;5093807;28;20060;-76
2022/04/27 06:51:21;;;;;;;22.10;14.07;;;;;;;24.33;33.21;100865.75;5093619;28;20027;-75
2022/04/27 06:53:47;;;;;;;40.05;16.33;;;;;;;25.52;32.09;100869.00;5075456;28;20093;-75
2022/04/27 06:56:16;;;;;;;18.88;13.52;;;;;;;26.27;30.17;100868.03;5075452;28;20028;-75
2022/04/27 06:58:41;;;;;;;16.75;12.48;;;;;;;26.31;29.68;100874.25;5076860;28;20047;-75
2022/04/27 07:01:06;;;;;;;17.63;11.80;;;;;;;25.90;28.03;100878.88;5077318;28;20036;-74
2022/04/27 07:03:33;;;;;;;19.23;12.13;;;;;;;24.91;28.19;100880.88;5077647;28;20031;-75
2022/04/27 07:05:58;;;;;;;22.80;12.80;;;;;;;24.56;31.91;100890.16;5095327;28;20031;-73
2022/04/27 07:08:24;;;;;;;13.48;10.30;;;;;;;25.43;30.48;100887.81;5060655;28;20024;-76
2022/04/27 07:10:50;;;;;;;17.77;10.52;;;;;;;26.11;25.96;100890.47;5077320;28;20565;-76
2022/04/27 07:13:15;;;;;;;18.83;10.32;;;;;;;26.38;29.56;100891.06;5095652;28;20422;-76
2022/04/27 07:15:40;;;;;;;14.85;10.98;;;;;;;26.45;25.69;100885.25;5077665;28;20464;-76
2022/04/27 07:18:06;;;;;;;18.40;10.75;;;;;;;26.71;27.27;100895.09;5077255;28;20114;-76
2022/04/27 07:20:31;;;;;;;16.08;10.50;;;;;;;26.72;25.01;100894.53;5077118;28;20114;-77
2022/04/27 07:22:57;;;;;;;14.95;10.27;;;;;;;26.45;28.27;100907.84;5093578;28;20100;-75
2022/04/27 07:25:22;;;;;;;15.15;10.35;;;;;;;26.65;28.22;100901.13;5076904;28;20074;-75
2022/04/27 07:27:47;;;;;;;14.48;9.40;;;;;;;26.55;26.38;100903.00;5056995;28;20017;-75
2022/04/27 07:30:13;;;;;;;13.05;8.18;;;;;;;26.36;26.43;100906.25;5079445;28;20110;-74
2022/04/27 07:32:38;;;;;;;14.40;8.57;;;;;;;25.96;27.11;100899.13;5086856;28;20099;-74
2022/04/27 07:35:05;;;;;;;11.70;8.45;;;;;;;26.42;27.93;100906.88;5095031;28;20169;-75
2022/04/27 07:37:30;;;;;;;12.00;7.70;;;;;;;27.23;25.48;100897.44;5077022;28;20438;-76
2022/04/27 07:39:55;;;;;;;14.48;7.95;;;;;;;28.09;24.62;100903.47;5076506;28;20499;-76
2022/04/27 07:42:21;;;;;;;11.13;7.53;;;;;;;29.14;22.05;100895.69;5076738;28;20460;-76
2022/04/27 07:44:46;;;;;;;13.93;8.10;;;;;;;30.09;23.88;100892.41;5076798;28;20043;-74
2022/04/27 07:47:13;;;;;;;8.65;6.55;;;;;;;30.70;21.38;100898.38;5060353;28;20099;-75
2022/04/27 07:49:38;;;;;;;10.15;6.35;;;;;;;31.25;20.73;100905.88;5076419;28;20031;-75
2022/04/27 07:52:04;;;;;;;8.30;6.07;;;;;;;31.57;20.56;100898.94;5076420;28;20023;-75
2022/04/27 07:54:29;;;;;;;8.63;6.15;;;;;;;32.04;19.50;100903.41;5078752;28;20020;-76
2022/04/27 07:56:55;;;;;;;6.75;5.60;;;;;;;31.58;19.35;100901.25;5076419;28;20460;-75
2022/04/27 07:59:20;;;;;;;7.70;6.13;;;;;;;31.60;19.36;100895.53;5094550;28;20483;-74
2022/04/27 08:01:46;;;;;;;10.38;6.25;;;;;;;31.89;18.58;100907.41;5094616;28;20028;-74
2022/04/27 08:04:11;;;;;;;9.55;6.68;;;;;;;32.35;19.61;100898.50;5094454;28;20020;-76
2022/04/27 08:06:36;;;;;;;7.15;5.97;;;;;;;32.33;17.29;100898.34;5094181;28;20027;-75
2022/04/27 08:09:02;;;;;;;11.95;7.57;;;;;;;32.18;17.94;100901.59;5094308;28;20107;-76
2022/04/27 08:11:27;;;;;;;8.93;7.50;;;;;;;32.26;19.47;100902.25;5093878;28;20093;-79
2022/04/27 08:13:53;;;;;;;6.55;5.45;;;;;;;32.37;17.19;100904.56;5079213;28;20035;-74
2022/04/27 08:16:18;;;;;;;8.30;6.22;;;;;;;32.38;18.11;100900.22;5094202;28;20115;-77
2022/04/27 08:18:45;;;;;;;7.53;4.40;;;;;;;32.60;18.74;100903.34;5076430;28;20115;-78
2022/04/27 08:21:14;;;;;;;10.50;5.13;;;;;;;32.65;17.90;100902.28;5077103;28;20491;-78
2022/04/27 08:23:40;;;;;;;5.80;4.20;;;;;;;32.96;17.45;100900.19;5094353;28;20110;-77
2022/04/27 08:26:06;;;;;;;5.43;4.15;;;;;;;32.66;16.70;100910.50;5094071;28;20028;-77
2022/04/27 08:28:32;;;;;;;6.00;4.10;;;;;;;31.71;17.61;100909.69;5076000;28;20445;-79
2022/04/27 08:30:59;;;;;;;3.55;2.75;;;;;;;30.44;17.15;100911.59;5094234;28;20024;-77
2022/04/27 08:33:24;;;;;;;3.78;2.65;;;;;;;29.14;18.34;100898.63;5075615;28;20042;-78
2022/04/27 08:35:50;;;;;;;4.53;2.95;;;;;;;27.88;19.77;100909.56;5093721;28;20103;-78
2022/04/27 08:38:15;;;;;;;3.58;3.03;;;;;;;26.72;20.71;100908.38;5093804;28;20031;-78
2022/04/27 08:40:43;;;;;;;3.88;3.25;;;;;;;26.01;21.07;100909.88;5093955;28;20024;-79
2022/04/27 08:43:12;;;;;;;4.63;2.72;;;;;;;25.29;21.12;100909.66;5093201;28;20158;-77
2022/04/27 08:45:42;;;;;;;3.95;2.65;;;;;;;24.60;23.01;100910.19;5088960;28;20097;-77
2022/04/27 08:48:08;;;;;;;4.03;2.45;;;;;;;23.89;23.44;100916.91;5092710;28;20028;-79
2022/04/27 08:50:34;;;;;;;4.43;2.55;;;;;;;23.06;24.24;100898.78;5074402;28;20396;-78
2022/04/27 08:53:00;;;;;;;3.42;2.00;;;;;;;22.56;23.68;100916.91;5093601;28;20162;-80
2022/04/27 08:55:28;;;;;;;3.70;2.55;;;;;;;21.98;25.07;100913.69;5094178;28;20035;-80
2022/04/27 08:58:14;;;;;;;5.85;2.58;;;;;;;21.52;25.88;100913.31;5076491;28;20430;-80
2022/04/27 09:00:41;;;;;;;3.65;3.05;;;;;;;21.29;26.54;100911.94;5054829;28;20032;-77
2022/04/27 09:03:38;;;;;;;3.28;2.38;;;;;;;21.15;25.66;100921.81;5073129;28;20457;-77
2022/04/27 09:06:12;;;;;;;3.00;2.05;;;;;;;20.74;26.96;100924.69;5079774;28;20028;-79
2022/04/27 09:08:40;;;;;;;3.00;2.40;;;;;;;20.35;27.27;100918.31;5109716;28;20372;-78
2022/04/27 09:11:25;;;;;;;8.90;3.72;;;;;;;20.08;26.98;100929.41;5108762;28;20117;-78
2022/04/27 09:14:00;;;;;;;4.00;2.72;;;;;;;19.96;28.37;100927.88;5075226;28;20028;-78
2022/04/27 09:22:24;;;;;;;2.78;2.20;;;;;;;21.20;27.39;100918.09;5093200;28;19923;-79
2022/04/27 09:24:57;;;;;;;3.50;2.92;;;;;;;21.73;27.14;100919.44;5058266;28;20028;-77
2022/04/27 09:27:26;;;;;;;3.08;2.28;;;;;;;21.74;25.60;100897.03;5092968;28;20074;-76
2022/04/27 09:30:00;;;;;;;3.47;2.28;;;;;;;21.75;25.78;100922.59;5092831;28;20526;-77
2022/04/27 09:32:26;;;;;;;5.07;2.90;;;;;;;21.49;26.50;100922.31;5093443;28;20028;-77
2022/04/27 09:34:51;;;;;;;5.28;2.78;;;;;;;21.23;26.79;100917.00;5093107;28;20077;-77
2022/04/27 09:37:19;;;;;;;4.15;2.35;;;;;;;20.83;26.91;100920.66;5093019;28;20039;-78
2022/04/27 09:40:03;;;;;;;3.03;2.72;;;;;;;20.52;28.03;100913.22;5092866;28;20401;-77
2022/04/27 09:42:30;;;;;;;4.93;3.78;;;;;;;20.26;28.22;100922.25;5092926;28;20361;-76
2022/04/27 09:45:13;;;;;;;7.72;3.25;;;;;;;19.98;28.63;100916.56;5093204;28;20044;-77
2022/04/27 09:47:58;;;;;;;3.92;2.95;;;;;;;19.69;29.17;100915.03;5092918;28;20020;-78
2022/04/27 09:50:23;;;;;;;7.65;2.95;;;;;;;19.45;30.09;100920.59;5092707;28;20036;-77
2022/04/27 09:52:49;;;;;;;6.20;3.40;;;;;;;19.30;30.74;100931.59;5074658;28;20373;-77
2022/04/27 09:55:14;;;;;;;5.13;3.00;;;;;;;19.05;30.99;100924.75;5074767;28;20063;-77
2022/04/27 09:57:41;;;;;;;4.35;3.15;;;;;;;18.79;31.50;100927.09;5092784;28;20035;-77
2022/04/27 10:00:07;;;;;;;8.65;2.97;;;;;;;18.69;31.83;100919.97;5092806;28;20105;-78
2022/04/27 10:02:34;;;;;;;4.47;2.85;;;;;;;18.42;32.00;100927.19;5101140;28;20031;-77
2022/04/27 10:05:00;;;;;;;11.93;3.88;;;;;;;18.06;32.67;100935.41;5071994;28;20029;-77
2022/04/27 10:07:25;;;;;;;5.78;2.63;;;;;;;17.80;33.06;100936.84;5054384;28;20029;-76
2022/04/27 10:09:52;;;;;;;8.75;4.50;;;;;;;17.67;32.57;100932.31;5071888;28;20415;-76
2022/04/27 10:12:17;;;;;;;2.78;1.90;;;;;;;17.49;31.49;100931.88;5069748;28;20404;-76
2022/04/27 10:14:43;;;;;;;3.00;2.00;;;;;;;17.32;31.63;100937.50;5085404;28;20491;-76
2022/04/27 10:17:11;;;;;;;4.07;2.50;;;;;;;17.17;31.71;100939.72;5092164;28;20081;-77
2022/04/27 10:19:43;;;;;;;3.03;2.30;;;;;;;17.11;32.21;100939.69;5090574;28;20046;-76
2022/04/27 10:22:33;;;;;;;3.13;2.40;;;;;;;17.08;32.85;100952.19;5091044;28;20407;-80
2022/04/27 10:25:08;;;;;;;4.35;2.83;;;;;;;17.02;32.96;100945.59;5092586;28;20078;-78
2022/04/27 10:27:37;;;;;;;5.47;3.38;;;;;;;17.01;33.52;100946.13;5091695;28;20379;-79
2022/04/27 10:30:08;;;;;;;4.57;3.13;;;;;;;16.98;33.77;100947.91;5092164;28;20476;-80
2022/04/27 10:32:34;;;;;;;4.45;3.40;;;;;;;17.02;34.64;100948.47;5092167;28;20031;-80
2022/04/27 10:35:11;;;;;;;7.55;3.25;;;;;;;17.01;34.78;100949.78;5094100;28;20028;-78
2022/04/27 10:37:59;;;;;;;6.47;3.25;;;;;;;17.06;34.95;100949.06;5095788;28;20032;-77
2022/04/27 10:40:25;;;;;;;5.45;3.13;;;;;;;17.16;34.76;100950.47;5095616;28;20028;-77
2022/04/27 10:42:50;;;;;;;5.53;3.28;;;;;;;17.28;34.77;100948.47;5095155;28;20036;-78
2022/04/27 10:45:22;;;;;;;4.28;3.80;;;;;;;17.43;35.11;100946.22;5095551;28;20081;-77
2022/04/27 10:47:47;;;;;;;5.05;3.50;;;;;;;17.55;34.85;100945.03;5077212;28;20433;-77
2022/04/27 10:50:13;;;;;;;5.15;3.10;;;;;;;17.66;34.46;100939.34;5101023;28;20028;-78
2022/04/27 10:52:44;;;;;;;7.43;3.45;;;;;;;17.73;33.88;100943.06;5115711;28;20464;-79
2022/04/27 10:55:34;;;;;;;5.47;2.95;;;;;;;17.91;34.30;100942.69;5095727;28;20020;-80
2022/04/27 10:58:16;;;;;;;4.68;2.83;;;;;;;18.10;33.15;100947.53;5094374;28;20446;-79
2022/04/27 11:01:03;;;;;;;4.97;3.63;;;;;;;18.40;33.45;100942.13;5095153;28;20028;-79
2022/04/27 11:03:29;;;;;;;4.70;2.63;;;;;;;18.66;33.06;100942.00;5094903;28;20055;-78
2022/04/27 11:05:59;;;;;;;4.95;3.17;;;;;;;18.96;31.65;100945.22;5110858;28;20050;-80
2022/04/27 11:08:42;;;;;;;6.85;3.95;;;;;;;19.21;30.87;100937.63;5060356;28;20032;-80
2022/04/27 11:11:09;;;;;;;9.13;3.35;;;;;;;19.46;30.95;100941.59;5086880;28;20082;-78
2022/04/27 11:13:36;;;;;;;9.30;4.55;;;;;;;19.74;31.46;100937.38;5046655;28;20036;-78
2022/04/27 11:16:11;;;;;;;7.93;4.40;;;;;;;20.09;30.49;100939.66;5065322;28;20032;-78
2022/04/27 11:18:50;;;;;;;5.50;3.05;;;;;;;20.21;28.83;100944.09;5065725;28;20033;-80
2022/04/27 11:21:18;;;;;;;6.32;4.38;;;;;;;20.31;30.28;100947.53;5048541;28;20042;-79
2022/04/27 11:23:43;;;;;;;5.63;3.90;;;;;;;20.38;29.33;100943.28;5068569;28;20427;-80
2022/04/27 11:26:09;;;;;;;5.53;3.70;;;;;;;20.40;29.56;100950.13;5064855;28;20024;-80
2022/04/27 11:28:39;;;;;;;5.75;3.65;;;;;;;20.41;29.58;100950.91;5052784;28;20055;-79
2022/04/27 11:31:04;;;;;;;5.07;3.55;;;;;;;20.37;29.57;100954.09;5065867;28;20059;-78
2022/04/27 11:33:31;;;;;;;9.10;4.25;;;;;;;20.19;29.36;100948.84;5082764;28;20031;-79
2022/04/27 11:35:56;;;;;;;5.47;3.58;;;;;;;20.00;29.51;100948.63;5082967;28;20037;-77